createdAt,value
2022-10-19T00:01:16.304Z,10.71
2022-10-19T00:03:45.892Z,10.75
2022-10-19T00:06:18.179Z,10.75
2022-10-19T00:08:46.266Z,10.73
2022-10-19T00:11:13.722Z,10.71
2022-10-19T00:13:41.210Z,10.70
2022-10-19T00:16:15.005Z,10.70
2022-10-19T00:18:43.658Z,10.71
2022-10-19T00:21:13.711Z,10.71
2022-10-19T00:23:41.315Z,10.70
2022-10-19T00:26:08.817Z,10.66
2022-10-19T00:28:36.871Z,10.70
2022-10-19T00:31:10.418Z,10.70
2022-10-19T00:33:38.585Z,10.66
2022-10-19T00:36:06.855Z,10.64
2022-10-19T00:38:34.293Z,10.68
2022-10-19T00:41:02.607Z,10.68
2022-10-19T00:43:31.764Z,10.67
2022-10-19T00:45:59.355Z,10.63
2022-10-19T00:48:31.991Z,10.66
2022-10-19T00:51:00.588Z,10.63
2022-10-19T00:53:30.555Z,10.66
2022-10-19T00:56:00.536Z,10.62
2022-10-19T00:58:28.066Z,10.64
2022-10-19T01:00:55.666Z,10.66
2022-10-19T01:03:23.297Z,10.68
2022-10-19T01:05:51.434Z,10.69
2022-10-19T01:08:19.223Z,10.68
2022-10-19T01:10:58.674Z,10.71
2022-10-19T01:13:33.556Z,10.70
2022-10-19T01:16:26.859Z,10.79
2022-10-19T01:19:31.158Z,10.79
2022-10-19T01:22:32.515Z,10.76
2022-10-19T01:25:28.676Z,10.73
2022-10-19T01:28:14.588Z,10.77
2022-10-19T01:30:51.210Z,10.73
2022-10-19T01:33:40.558Z,10.75
2022-10-19T01:36:37.343Z,10.74
2022-10-19T01:39:10.638Z,10.63
2022-10-19T01:41:49.228Z,10.67
2022-10-19T01:44:28.131Z,10.62
2022-10-19T01:47:00.751Z,10.54
2022-10-19T01:49:45.548Z,10.67
2022-10-19T01:52:17.568Z,10.64
2022-10-19T01:54:52.990Z,10.61
2022-10-19T01:57:26.603Z,10.65
2022-10-19T01:59:55.763Z,10.64
2022-10-19T02:02:26.252Z,10.62
2022-10-19T02:04:57.099Z,10.62
2022-10-19T02:07:25.709Z,10.66
2022-10-19T02:09:53.226Z,10.64
2022-10-19T02:12:21.911Z,10.65
2022-10-19T02:14:52.359Z,10.60
2022-10-19T02:17:24.144Z,10.64
2022-10-19T02:19:53.919Z,10.70
2022-10-19T02:22:22.222Z,10.65
2022-10-19T02:24:49.959Z,10.65
2022-10-19T02:27:17.696Z,10.67
2022-10-19T02:29:45.343Z,10.67
2022-10-19T02:32:13.040Z,10.71
2022-10-19T02:34:41.449Z,10.66
2022-10-19T02:37:09.039Z,10.60
2022-10-19T02:39:38.255Z,10.65
2022-10-19T02:42:29.228Z,10.78
2022-10-19T02:45:06.966Z,10.68
2022-10-19T02:48:00.057Z,10.70
2022-10-19T02:50:27.897Z,10.66
2022-10-19T02:52:55.332Z,10.66
2022-10-19T02:55:22.827Z,10.66
2022-10-19T02:57:50.217Z,10.60
2022-10-19T03:00:17.885Z,10.58
2022-10-19T03:02:45.419Z,10.53
2022-10-19T03:05:12.791Z,10.58
2022-10-19T03:07:41.498Z,10.61
2022-10-19T03:10:09.421Z,10.64
2022-10-19T03:12:36.929Z,10.64
2022-10-19T03:15:05.101Z,10.61
2022-10-19T03:17:32.875Z,10.57
2022-10-19T03:20:00.598Z,10.56
2022-10-19T03:22:30.454Z,10.59
2022-10-19T03:24:57.898Z,10.64
2022-10-19T03:27:25.497Z,10.66
2022-10-19T03:29:53.051Z,10.65
2022-10-19T03:32:21.634Z,10.66
2022-10-19T03:34:49.118Z,10.63
2022-10-19T03:37:16.507Z,10.60
2022-10-19T03:39:43.891Z,10.61
2022-10-19T03:42:11.426Z,10.64
2022-10-19T03:44:38.800Z,10.67
2022-10-19T03:47:06.264Z,10.65
2022-10-19T03:49:34.678Z,10.67
2022-10-19T03:52:04.493Z,10.68
2022-10-19T03:54:31.915Z,10.65
2022-10-19T03:56:59.413Z,10.68
2022-10-19T03:59:27.159Z,10.60
2022-10-19T04:01:54.715Z,10.59
2022-10-19T04:04:22.123Z,10.64
2022-10-19T04:06:50.616Z,10.63
2022-10-19T04:09:20.063Z,10.65
2022-10-19T04:11:48.453Z,10.59
2022-10-19T04:14:26.881Z,10.59
2022-10-19T04:17:04.481Z,10.67
2022-10-19T04:19:32.095Z,10.63
2022-10-19T04:21:59.960Z,10.58
2022-10-19T04:24:28.025Z,10.62
2022-10-19T04:26:56.802Z,10.53
2022-10-19T04:29:29.496Z,10.46
2022-10-19T04:31:59.740Z,10.47
2022-10-19T04:34:27.447Z,10.46
2022-10-19T04:36:55.297Z,10.43
2022-10-19T04:39:22.865Z,10.47
2022-10-19T04:41:50.259Z,10.45
2022-10-19T04:44:17.790Z,10.48
2022-10-19T04:46:45.265Z,10.42
2022-10-19T04:49:16.383Z,10.44
2022-10-19T04:51:47.001Z,10.38
2022-10-19T04:54:14.405Z,10.37
2022-10-19T04:56:41.909Z,10.29
2022-10-19T04:59:10.458Z,10.24
2022-10-19T05:01:40.427Z,10.29
2022-10-19T05:04:10.125Z,10.21
2022-10-19T05:06:38.090Z,10.22
2022-10-19T05:09:05.527Z,10.20
2022-10-19T05:11:33.075Z,10.12
2022-10-19T05:14:00.471Z,10.09
2022-10-19T05:16:27.999Z,10.13
2022-10-19T05:18:56.873Z,10.13
2022-10-19T05:21:27.237Z,10.13
2022-10-19T05:23:56.188Z,10.18
2022-10-19T05:26:26.016Z,10.23
2022-10-19T05:28:56.825Z,10.23
2022-10-19T05:31:27.683Z,10.30
2022-10-19T05:33:56.473Z,10.27
2022-10-19T05:36:26.357Z,10.28
2022-10-19T05:38:57.137Z,10.19
2022-10-19T05:41:25.867Z,10.15
2022-10-19T05:43:56.007Z,10.12
2022-10-19T05:46:24.933Z,10.07
2022-10-19T05:48:52.674Z,10.10
2022-10-19T05:51:22.737Z,10.08
2022-10-19T05:53:50.260Z,10.08
2022-10-19T05:56:20.340Z,10.04
2022-10-19T05:58:48.099Z,10.06
2022-10-19T06:01:18.971Z,10.02
2022-10-19T06:03:50.753Z,10.01
2022-10-19T06:06:18.797Z,10.02
2022-10-19T06:08:46.938Z,10.00
2022-10-19T06:11:34.005Z,10.05
2022-10-19T06:14:04.479Z,10.00
2022-10-19T06:16:32.585Z,9.97
2022-10-19T06:19:00.412Z,9.99
2022-10-19T06:21:30.078Z,9.96
2022-10-19T06:24:00.402Z,10.02
2022-10-19T06:26:29.050Z,10.06
2022-10-19T06:29:00.215Z,10.00
2022-10-19T06:31:30.275Z,10.04
2022-10-19T06:33:57.916Z,10.07
2022-10-19T06:36:29.300Z,10.07
2022-10-19T06:38:56.938Z,10.07
2022-10-19T06:41:24.379Z,10.01
2022-10-19T06:43:53.051Z,9.99
2022-10-19T06:46:23.560Z,10.02
2022-10-19T06:48:55.001Z,9.98
2022-10-19T06:51:23.314Z,9.89
2022-10-19T06:53:52.921Z,9.88
2022-10-19T06:56:25.058Z,9.86
2022-10-19T06:58:52.971Z,9.85
2022-10-19T07:01:20.578Z,9.82
2022-10-19T07:03:48.061Z,9.83
2022-10-19T07:06:15.527Z,9.80
2022-10-19T07:08:44.003Z,9.73
2022-10-19T07:11:15.319Z,9.77
2022-10-19T07:13:42.875Z,9.74
2022-10-19T07:16:16.169Z,9.78
2022-10-19T07:18:47.755Z,9.77
2022-10-19T07:21:17.321Z,9.83
2022-10-19T07:23:47.191Z,9.86
2022-10-19T07:26:23.588Z,9.89
2022-10-19T07:28:51.337Z,9.85
2022-10-19T07:31:22.665Z,9.83
2022-10-19T07:33:58.936Z,9.84
2022-10-19T07:36:28.020Z,9.73
2022-10-19T07:38:55.635Z,9.70
2022-10-19T07:41:25.574Z,9.64
2022-10-19T07:43:53.942Z,9.66
2022-10-19T07:46:23.691Z,9.65
2022-10-19T07:48:51.499Z,9.65
2022-10-19T07:51:20.215Z,9.64
2022-10-19T07:53:48.691Z,9.70
2022-10-19T07:56:21.897Z,9.74
2022-10-19T07:58:54.757Z,9.78
2022-10-19T08:01:24.859Z,9.71
2022-10-19T08:06:41.658Z,9.84
2022-10-19T08:09:09.199Z,9.81
2022-10-19T08:11:36.866Z,9.81
2022-10-19T08:14:04.458Z,9.83
2022-10-19T08:16:44.579Z,9.87
2022-10-19T08:19:16.215Z,9.93
2022-10-19T08:22:26.683Z,9.99
2022-10-19T08:25:31.633Z,10.03
2022-10-19T08:29:04.188Z,9.86
2022-10-19T08:32:49.722Z,9.96
2022-10-19T08:36:44.214Z,9.91
2022-10-19T08:50:59.625Z,10.02
2022-10-19T08:53:42.460Z,10.05
2022-10-19T08:56:26.783Z,10.02
2022-10-19T08:59:11.845Z,10.01
2022-10-19T09:10:38.804Z,10.05
2022-10-19T09:14:04.640Z,9.98
2022-10-19T09:17:14.484Z,9.84
2022-10-19T09:19:42.454Z,9.74
2022-10-19T09:22:43.744Z,9.88
2022-10-19T09:25:19.591Z,9.79
2022-10-19T09:27:53.190Z,9.68
2022-10-19T09:30:23.118Z,9.63
2022-10-19T09:33:02.722Z,9.65
2022-10-19T09:35:39.179Z,9.69
2022-10-19T09:38:07.858Z,9.63
2022-10-19T09:54:16.049Z,9.73
2022-10-19T09:56:53.803Z,9.72
2022-10-19T09:59:23.645Z,9.75
2022-10-19T10:06:32.252Z,9.74
2022-10-19T10:13:37.496Z,9.84
2022-10-19T10:16:08.311Z,9.75
2022-10-19T10:18:39.400Z,9.69
2022-10-19T10:24:34.238Z,9.71
2022-10-19T10:27:06.596Z,9.69
2022-10-19T10:29:39.208Z,9.70
2022-10-19T10:32:09.028Z,9.67
2022-10-19T10:34:51.814Z,9.69
2022-10-19T10:38:06.260Z,9.81
2022-10-19T10:40:49.072Z,9.73
2022-10-19T10:43:33.763Z,9.80
2022-10-19T10:46:24.707Z,9.90
2022-10-19T10:49:00.266Z,9.78
2022-10-19T10:51:43.008Z,9.81
2022-10-19T10:54:17.191Z,9.77
2022-10-19T10:57:06.267Z,9.84
2022-10-19T10:59:45.900Z,10.00
2022-10-19T11:02:28.527Z,9.96
2022-10-19T11:05:10.806Z,10.14
2022-10-19T11:07:45.087Z,10.22
2022-10-19T11:10:30.151Z,10.43
2022-10-19T11:13:18.914Z,10.61
2022-10-19T11:16:18.907Z,10.70
2022-10-19T11:18:55.493Z,10.94
2022-10-19T11:21:35.349Z,11.21
2022-10-19T11:24:41.172Z,11.49
2022-10-19T11:27:21.907Z,11.56
2022-10-19T11:29:51.995Z,11.44
2022-10-19T11:32:19.423Z,11.32
2022-10-19T11:35:07.209Z,11.20
2022-10-19T11:37:49.707Z,11.28
2022-10-19T11:40:54.277Z,10.95
2022-10-19T11:43:39.626Z,10.95
2022-10-19T11:46:36.967Z,11.16
2022-10-19T11:49:31.694Z,11.20
2022-10-19T11:52:36.898Z,11.30
2022-10-19T11:55:41.247Z,11.30
2022-10-19T11:58:39.758Z,11.24
2022-10-19T12:01:06.970Z,11.30
2022-10-19T12:04:20.271Z,11.06
2022-10-19T12:07:29.307Z,10.87
2022-10-19T12:10:05.348Z,10.80
2022-10-19T12:13:33.981Z,10.73
2022-10-19T12:16:03.930Z,10.63
2022-10-19T12:18:51.887Z,10.59
2022-10-19T12:21:22.493Z,10.47
2022-10-19T12:23:51.452Z,10.42
2022-10-19T12:26:30.162Z,10.34
2022-10-19T12:29:07.431Z,10.27
2022-10-19T12:31:36.181Z,10.25
2022-10-19T12:34:35.612Z,10.33
2022-10-19T12:37:12.827Z,10.26
2022-10-19T12:39:58.847Z,10.42
2022-10-19T12:42:53.711Z,10.25
2022-10-19T12:45:26.894Z,10.21
2022-10-19T12:48:12.492Z,10.28
2022-10-19T12:50:48.930Z,10.25
2022-10-19T12:53:40.110Z,10.33
2022-10-19T12:56:24.334Z,10.28
2022-10-19T12:58:54.550Z,10.20
2022-10-19T13:01:28.265Z,10.23
2022-10-19T13:04:19.522Z,10.25
2022-10-19T13:07:44.938Z,10.31
2022-10-19T13:10:21.041Z,10.26
2022-10-19T13:12:49.075Z,10.24
2022-10-19T13:15:42.505Z,10.36
2022-10-19T13:18:34.221Z,10.25
2022-10-19T13:21:03.529Z,10.20
2022-10-19T13:23:31.213Z,10.23
2022-10-19T13:26:24.145Z,10.29
2022-10-19T13:28:55.917Z,10.17
2022-10-19T13:31:27.054Z,10.15
2022-10-19T13:33:55.055Z,10.18
2022-10-19T13:36:24.519Z,10.18
2022-10-19T13:39:02.794Z,10.21
2022-10-19T13:41:39.191Z,10.19
2022-10-19T13:44:21.653Z,10.11
2022-10-19T13:47:02.774Z,10.12
2022-10-19T13:49:58.236Z,10.19
2022-10-19T13:52:43.485Z,10.09
2022-10-19T13:55:23.473Z,10.12
2022-10-19T13:58:14.239Z,10.15
2022-10-19T14:01:01.122Z,10.20
2022-10-19T14:04:05.845Z,10.20
2022-10-19T14:06:56.635Z,10.12
2022-10-19T14:09:45.646Z,10.18
2022-10-19T14:12:22.467Z,10.11
2022-10-19T14:23:52.555Z,10.12
2022-10-19T14:34:16.404Z,10.00
2022-10-19T14:37:49.486Z,10.14
2022-10-19T14:41:48.789Z,10.17
2022-10-19T14:48:50.017Z,10.08
2022-10-19T14:51:45.336Z,10.08
2022-10-19T14:54:30.291Z,10.11
2022-10-19T14:57:06.695Z,10.04
2022-10-19T14:59:55.614Z,10.04
2022-10-19T15:02:29.081Z,10.06
2022-10-19T15:04:59.773Z,10.07
2022-10-19T15:07:48.092Z,10.13
2022-10-19T15:10:20.742Z,9.95
2022-10-19T15:12:51.012Z,10.03
2022-10-19T15:15:27.906Z,9.96
2022-10-19T15:18:03.291Z,10.02
2022-10-19T15:20:43.902Z,9.98
2022-10-19T15:23:40.127Z,10.01
2022-10-19T15:26:29.506Z,10.04
2022-10-19T15:29:09.630Z,9.93
2022-10-19T15:31:37.163Z,9.86
2022-10-19T15:34:05.477Z,9.88
2022-10-19T15:36:33.529Z,9.81
2022-10-19T15:39:24.712Z,9.79
2022-10-19T15:41:52.838Z,9.69
2022-10-19T15:44:42.514Z,9.73
2022-10-19T15:47:23.054Z,9.68
2022-10-19T15:50:02.061Z,9.64
2022-10-19T15:52:34.712Z,9.54
2022-10-19T15:55:02.594Z,9.46
2022-10-19T15:57:36.447Z,9.48
2022-10-19T16:00:16.243Z,9.51
2022-10-19T16:02:46.083Z,9.41
2022-10-19T16:05:13.588Z,9.50
2022-10-19T16:07:42.036Z,9.52
2022-10-19T16:10:17.089Z,9.51
2022-10-19T16:12:44.925Z,9.49
2022-10-19T16:15:16.465Z,9.54
2022-10-19T16:17:47.201Z,9.54
2022-10-19T16:20:15.494Z,9.54
2022-10-19T16:22:46.944Z,9.50
2022-10-19T16:25:14.838Z,9.41
2022-10-19T16:27:42.439Z,9.45
2022-10-19T16:30:14.002Z,9.47
2022-10-19T16:35:42.215Z,9.47
2022-10-19T16:38:37.648Z,9.55
2022-10-19T16:41:56.427Z,9.52
2022-10-19T16:45:04.444Z,9.55
2022-10-19T16:48:11.714Z,9.49
2022-10-19T16:51:28.744Z,9.55
2022-10-19T16:54:24.085Z,9.44
2022-10-19T16:57:09.760Z,9.32
2022-10-19T16:59:37.906Z,9.39
2022-10-19T17:02:05.400Z,9.37
2022-10-19T17:04:42.038Z,9.45
2022-10-19T17:07:24.522Z,9.44
2022-10-19T17:22:08.091Z,9.39
2022-10-19T17:25:25.073Z,9.23
2022-10-19T17:33:01.029Z,9.24
2022-10-19T17:35:52.236Z,9.10
2022-10-19T17:38:38.657Z,9.09
2022-10-19T17:41:33.681Z,8.99
2022-10-19T17:44:10.468Z,9.02
2022-10-19T17:46:38.395Z,9.06
2022-10-19T17:52:15.565Z,9.05
2022-10-19T17:54:54.400Z,9.03
2022-10-19T17:57:30.564Z,9.10
2022-10-19T17:59:58.058Z,9.00
2022-10-19T18:02:25.557Z,9.07
2022-10-19T18:04:53.170Z,9.06
2022-10-19T18:07:22.123Z,9.10
2022-10-19T18:09:49.581Z,9.09
2022-10-19T18:12:16.979Z,9.08
2022-10-19T18:14:45.315Z,9.14
2022-10-19T18:17:12.845Z,9.13
2022-10-19T18:19:40.305Z,9.09
2022-10-19T18:22:07.783Z,9.08
2022-10-19T18:24:35.266Z,9.12
2022-10-19T18:27:02.842Z,9.14
2022-10-19T18:29:30.466Z,9.14
2022-10-19T18:31:58.213Z,9.15
2022-10-19T18:34:27.069Z,9.14
2022-10-19T18:36:55.074Z,9.08
2022-10-19T18:39:22.918Z,9.11
2022-10-19T18:41:56.921Z,9.04
2022-10-19T18:44:27.917Z,9.02
2022-10-19T18:46:57.214Z,9.03
2022-10-19T18:49:24.975Z,9.01
2022-10-19T18:51:55.367Z,9.08
2022-10-19T18:54:26.449Z,8.99
2022-10-19T18:56:55.071Z,8.96
2022-10-19T18:59:22.922Z,8.90
2022-10-19T19:01:50.597Z,8.88
2022-10-19T19:04:18.193Z,8.88
2022-10-19T19:06:45.625Z,8.90
2022-10-19T19:09:13.426Z,8.80
2022-10-19T19:11:41.339Z,8.88
2022-10-19T19:14:17.871Z,8.88
2022-10-19T19:16:45.631Z,8.86
2022-10-19T19:19:14.981Z,8.93
2022-10-19T19:21:44.520Z,8.88
2022-10-19T19:24:15.317Z,8.93
2022-10-19T19:26:46.823Z,8.83
2022-10-19T19:29:14.490Z,8.79
2022-10-19T19:31:42.073Z,8.76
2022-10-19T19:37:08.936Z,8.67
2022-10-19T19:39:39.802Z,8.64
2022-10-19T19:42:07.957Z,8.60
2022-10-19T19:44:35.367Z,8.65
2022-10-19T19:47:03.133Z,8.68
2022-10-19T19:49:42.220Z,8.74
2022-10-19T19:53:12.255Z,8.76
2022-10-19T19:56:59.986Z,8.77
2022-10-19T20:04:29.859Z,8.75
2022-10-19T20:07:40.503Z,8.69
2022-10-19T20:25:47.787Z,8.64
2022-10-19T20:28:39.923Z,8.65
2022-10-19T20:31:26.027Z,8.65
2022-10-19T20:33:59.093Z,8.59
2022-10-19T20:36:29.618Z,8.70
2022-10-19T20:38:58.802Z,8.70
2022-10-19T20:42:24.566Z,8.79
2022-10-19T20:44:54.734Z,8.71
2022-10-19T20:48:12.208Z,8.79
2022-10-19T20:51:44.401Z,8.82
2022-10-19T20:55:57.679Z,8.82
2022-10-19T21:03:09.087Z,8.74
2022-10-19T21:06:04.948Z,8.93
2022-10-19T21:08:34.417Z,8.83
2022-10-19T21:11:11.166Z,8.70
2022-10-19T21:13:38.699Z,8.66
2022-10-19T21:16:17.483Z,8.69
2022-10-19T21:18:46.951Z,8.60
2022-10-19T21:21:20.886Z,8.68
2022-10-19T21:23:50.742Z,8.71
2022-10-19T21:26:40.298Z,8.81
2022-10-19T21:29:09.752Z,8.71
2022-10-19T21:43:42.342Z,8.75
2022-10-19T21:46:15.063Z,8.65
2022-10-19T21:49:04.107Z,8.73
2022-10-19T21:52:16.129Z,8.78
2022-10-19T21:55:26.648Z,8.81
2022-10-19T21:58:36.148Z,8.81
2022-10-19T22:02:14.303Z,8.81
2022-10-19T22:05:01.722Z,8.72
2022-10-19T22:07:42.509Z,8.70
2022-10-19T22:10:25.107Z,8.73
2022-10-19T22:17:28.818Z,8.75
2022-10-19T22:19:59.128Z,8.77
2022-10-19T22:22:26.615Z,8.73
2022-10-19T22:25:12.293Z,8.80
2022-10-19T22:27:58.138Z,8.78
2022-10-19T22:30:28.250Z,8.79
2022-10-19T22:32:56.091Z,8.69
2022-10-19T22:35:38.690Z,8.73
2022-10-19T22:38:06.117Z,8.69
2022-10-19T22:40:33.613Z,8.63
2022-10-19T22:50:21.948Z,8.79
2022-10-19T22:52:49.423Z,8.76
2022-10-19T22:55:16.894Z,8.73
2022-10-19T22:57:45.329Z,8.69
2022-10-19T23:00:13.219Z,8.62
2022-10-19T23:02:40.726Z,8.64
2022-10-19T23:05:08.539Z,8.76
2022-10-19T23:07:38.282Z,8.74
2022-10-19T23:10:08.813Z,8.71
2022-10-19T23:12:36.336Z,8.75
2022-10-19T23:15:04.074Z,8.74
2022-10-19T23:17:31.559Z,8.71
2022-10-19T23:20:45.478Z,8.83
2022-10-19T23:23:56.190Z,8.78
2022-10-19T23:27:01.274Z,8.80
2022-10-19T23:30:02.253Z,8.72
2022-10-19T23:33:32.170Z,8.81
2022-10-19T23:36:13.085Z,8.73
2022-10-19T23:38:41.871Z,8.69
2022-10-19T23:42:20.739Z,8.79
2022-10-19T23:45:25.458Z,8.69
2022-10-19T23:48:10.444Z,8.68
2022-10-19T23:50:37.921Z,8.71
